Time;durP1;ratioP1;P1;durP2;ratioP2;P2;SDS_P1;SDS_P2;PMS_P1;PMS_P2;Temp;Humidity;BMP_temperature;BMP_pressure;BME280_temperature;BME280_humidity;BME280_pressure;Samples;Min_cycle;Max_cycle;Signal;HPM_P1;HPM_P2
2023/05/28 00:00:45;;;;;;;11.30;5.77;;;;;;;;;;5034129;28;20238;-85
2023/05/28 00:03:11;;;;;;;9.53;6.47;;;;;;;;;;5017250;28;20255;-85
2023/05/28 00:05:37;;;;;;;10.03;6.10;;;;;;;;;;5033177;28;20168;-85
2023/05/28 00:08:03;;;;;;;16.93;7.30;;;;;;;;;;5034051;28;20205;-86
2023/05/28 00:10:29;;;;;;;12.77;6.83;;;;;;;;;;5035044;28;20239;-85
2023/05/28 00:12:56;;;;;;;12.20;6.80;;;;;;;;;;5036567;28;20183;-82
2023/05/28 00:15:22;;;;;;;10.87;6.23;;;;;;;;;;5036700;28;20188;-82
2023/05/28 00:17:48;;;;;;;11.20;6.73;;;;;;;;;;5036301;28;20191;-82
2023/05/28 00:20:14;;;;;;;12.67;6.60;;;;;;;;;;5037403;28;20184;-82
2023/05/28 00:22:40;;;;;;;13.93;7.33;;;;;;;;;;5032922;28;20180;-82
2023/05/28 00:25:06;;;;;;;12.83;6.03;;;;;;;;;;5016694;28;20184;-82
2023/05/28 00:27:32;;;;;;;12.63;7.30;;;;;;;;;;5032309;28;20227;-82
2023/05/28 00:29:58;;;;;;;14.47;7.20;;;;;;;;;;5033081;28;20192;-85
2023/05/28 00:32:24;;;;;;;16.00;7.43;;;;;;;;;;5033093;28;20177;-85
2023/05/28 00:34:50;;;;;;;17.33;8.43;;;;;;;;;;5016822;28;20177;-86
2023/05/28 00:37:17;;;;;;;19.00;7.93;;;;;;;;;;5032708;28;20180;-86
2023/05/28 00:39:43;;;;;;;16.40;7.97;;;;;;;;;;5032726;28;20192;-86
2023/05/28 00:42:12;;;;;;;14.60;7.20;;;;;;;;;;5016637;28;20189;-86
2023/05/28 00:44:39;;;;;;;13.23;7.33;;;;;;;;;;5016749;28;20249;-86
2023/05/28 00:47:05;;;;;;;15.80;7.67;;;;;;;;;;5016401;28;20239;-82
2023/05/28 00:49:32;;;;;;;14.50;7.50;;;;;;;;;;5022766;28;20224;-82
2023/05/28 00:51:58;;;;;;;13.20;7.53;;;;;;;;;;5012895;28;20240;-82
2023/05/28 00:54:25;;;;;;;15.23;7.30;;;;;;;;;;5013188;28;20182;-82
2023/05/28 00:56:53;;;;;;;17.67;7.67;;;;;;;;;;5002882;28;20284;-82
2023/05/28 00:59:19;;;;;;;14.43;7.33;;;;;;;;;;5032583;28;20214;-82
2023/05/28 01:01:45;;;;;;;14.80;7.10;;;;;;;;;;5015796;28;20184;-86
2023/05/28 01:04:11;;;;;;;13.80;7.50;;;;;;;;;;5032877;28;20188;-86
2023/05/28 01:06:38;;;;;;;16.43;7.80;;;;;;;;;;5035924;28;20177;-86
2023/05/28 01:09:07;;;;;;;14.57;7.17;;;;;;;;;;5026094;28;20203;-85
2023/05/28 01:11:34;;;;;;;17.50;8.27;;;;;;;;;;5040753;28;20189;-85
2023/05/28 01:14:01;;;;;;;18.03;8.33;;;;;;;;;;5019765;28;20265;-86
2023/05/28 01:16:27;;;;;;;20.73;8.10;;;;;;;;;;5035876;28;20204;-86
2023/05/28 01:18:55;;;;;;;18.50;8.50;;;;;;;;;;5036627;28;20184;-82
2023/05/28 01:21:21;;;;;;;17.73;8.80;;;;;;;;;;5035296;28;20189;-82
2023/05/28 01:23:48;;;;;;;21.77;8.93;;;;;;;;;;5036125;28;20180;-82
2023/05/28 01:26:15;;;;;;;17.53;9.17;;;;;;;;;;5035545;28;20228;-83
2023/05/28 01:28:45;;;;;;;20.40;8.80;;;;;;;;;;5032432;28;20315;-82
2023/05/28 01:31:12;;;;;;;20.80;8.80;;;;;;;;;;5015928;28;20333;-82
2023/05/28 01:33:38;;;;;;;20.07;9.03;;;;;;;;;;5015611;28;20178;-82
2023/05/28 01:36:11;;;;;;;15.90;8.27;;;;;;;;;;4999767;28;20185;-82
2023/05/28 01:38:39;;;;;;;21.17;8.93;;;;;;;;;;5016209;28;20181;-82
2023/05/28 01:41:06;;;;;;;18.00;9.20;;;;;;;;;;5015744;28;20211;-82
2023/05/28 01:43:33;;;;;;;22.73;9.17;;;;;;;;;;5016886;28;20212;-82
2023/05/28 01:45:59;;;;;;;20.03;9.20;;;;;;;;;;4999409;28;20177;-86
2023/05/28 01:48:25;;;;;;;19.13;8.53;;;;;;;;;;5007700;28;20213;-86
2023/05/28 01:50:52;;;;;;;18.70;8.73;;;;;;;;;;5044951;28;20180;-86
2023/05/28 01:53:18;;;;;;;18.97;9.10;;;;;;;;;;5016078;28;20208;-86
2023/05/28 01:55:44;;;;;;;17.33;8.40;;;;;;;;;;5015500;28;20224;-85
2023/05/28 01:58:10;;;;;;;20.83;9.53;;;;;;;;;;4999084;28;20185;-86
2023/05/28 02:00:42;;;;;;;16.30;8.70;;;;;;;;;;5015822;28;20192;-86
2023/05/28 02:03:11;;;;;;;23.40;8.87;;;;;;;;;;5015775;28;20335;-86
2023/05/28 02:05:37;;;;;;;17.97;8.93;;;;;;;;;;5016384;28;20205;-86
2023/05/28 02:08:03;;;;;;;17.73;9.03;;;;;;;;;;5015475;28;20232;-86
2023/05/28 02:10:29;;;;;;;20.37;9.00;;;;;;;;;;5016341;28;20174;-82
2023/05/28 02:12:55;;;;;;;21.03;8.83;;;;;;;;;;5030642;28;20196;-82
2023/05/28 02:15:21;;;;;;;19.03;9.47;;;;;;;;;;5014998;28;20216;-82
2023/05/28 02:17:47;;;;;;;18.97;9.03;;;;;;;;;;5014394;28;20188;-82
2023/05/28 02:20:13;;;;;;;19.80;8.83;;;;;;;;;;4998806;28;20213;-82
2023/05/28 02:22:39;;;;;;;21.40;9.87;;;;;;;;;;5027642;28;20188;-82
2023/05/28 02:25:06;;;;;;;19.20;9.23;;;;;;;;;;5018892;28;20181;-83
2023/05/28 02:27:32;;;;;;;17.93;8.60;;;;;;;;;;5034356;28;20224;-82
2023/05/28 02:29:58;;;;;;;18.97;8.83;;;;;;;;;;5034650;28;20222;-83
2023/05/28 02:32:24;;;;;;;16.37;9.03;;;;;;;;;;5014375;28;20185;-82
2023/05/28 02:34:50;;;;;;;18.00;9.73;;;;;;;;;;5014890;28;20193;-82
2023/05/28 02:37:16;;;;;;;16.43;8.60;;;;;;;;;;5014777;28;20185;-82
2023/05/28 02:39:42;;;;;;;18.37;8.83;;;;;;;;;;5014781;28;20181;-83
2023/05/28 02:42:08;;;;;;;17.60;9.00;;;;;;;;;;5017847;28;20193;-82
2023/05/28 02:44:34;;;;;;;18.50;9.43;;;;;;;;;;5017845;28;20188;-82
2023/05/28 02:47:00;;;;;;;15.60;8.80;;;;;;;;;;5014640;28;20247;-82
2023/05/28 02:49:26;;;;;;;24.70;9.47;;;;;;;;;;5014760;28;20304;-82
2023/05/28 02:51:52;;;;;;;21.07;9.67;;;;;;;;;;5018652;28;20268;-82
2023/05/28 02:54:18;;;;;;;17.10;8.77;;;;;;;;;;5017885;28;20276;-83
2023/05/28 02:56:45;;;;;;;18.83;9.53;;;;;;;;;;5034164;28;20185;-82
2023/05/28 02:59:11;;;;;;;19.33;9.23;;;;;;;;;;5034171;28;20180;-86
2023/05/28 03:01:37;;;;;;;18.53;9.27;;;;;;;;;;5033839;28;20304;-85
2023/05/28 03:04:03;;;;;;;23.43;10.03;;;;;;;;;;5017647;28;20216;-86
2023/05/28 03:06:29;;;;;;;19.70;9.60;;;;;;;;;;5033867;28;20244;-85
2023/05/28 03:08:55;;;;;;;15.67;9.00;;;;;;;;;;5017533;28;20227;-85
2023/05/28 03:11:21;;;;;;;17.33;9.27;;;;;;;;;;5016566;28;20315;-85
2023/05/28 03:13:47;;;;;;;15.93;9.20;;;;;;;;;;5034007;28;20189;-85
2023/05/28 03:16:13;;;;;;;22.30;9.60;;;;;;;;;;5017478;28;20192;-82
2023/05/28 03:18:39;;;;;;;19.07;9.17;;;;;;;;;;5017203;28;20318;-82
2023/05/28 03:21:05;;;;;;;20.03;9.97;;;;;;;;;;5033582;28;20193;-82
2023/05/28 03:23:31;;;;;;;17.40;9.53;;;;;;;;;;5017108;28;20203;-82
2023/05/28 03:25:57;;;;;;;21.53;9.90;;;;;;;;;;5017270;28;20180;-82
2023/05/28 03:28:23;;;;;;;19.33;9.47;;;;;;;;;;5016648;28;20232;-82
2023/05/28 03:30:49;;;;;;;15.00;9.20;;;;;;;;;;5033326;28;20181;-86
2023/05/28 03:33:15;;;;;;;16.67;9.37;;;;;;;;;;5017691;28;20184;-86
2023/05/28 03:35:41;;;;;;;18.23;9.57;;;;;;;;;;5017333;28;20204;-86
2023/05/28 03:38:07;;;;;;;19.00;8.67;;;;;;;;;;5017383;28;20207;-86
2023/05/28 03:40:33;;;;;;;19.23;9.13;;;;;;;;;;5033262;28;20215;-86
2023/05/28 03:42:59;;;;;;;19.57;9.60;;;;;;;;;;5016944;28;20184;-86
2023/05/28 03:45:25;;;;;;;20.80;9.90;;;;;;;;;;5033523;28;20263;-86
2023/05/28 03:47:51;;;;;;;19.27;10.33;;;;;;;;;;5033671;28;20295;-86
2023/05/28 03:50:17;;;;;;;19.57;10.00;;;;;;;;;;5025351;28;20215;-86
2023/05/28 03:52:43;;;;;;;20.90;10.23;;;;;;;;;;4997309;28;20185;-86
2023/05/28 03:55:10;;;;;;;19.97;9.63;;;;;;;;;;5013756;28;20170;-86
2023/05/28 03:57:36;;;;;;;21.03;9.67;;;;;;;;;;5013406;28;20395;-86
2023/05/28 04:00:03;;;;;;;21.30;9.67;;;;;;;;;;5019630;28;20180;-86
2023/05/28 04:02:29;;;;;;;17.53;10.23;;;;;;;;;;5033015;28;20188;-85
2023/05/28 04:04:55;;;;;;;20.20;10.37;;;;;;;;;;5032648;28;20192;-86
2023/05/28 04:07:22;;;;;;;21.27;10.00;;;;;;;;;;5033600;28;20176;-86
2023/05/28 04:09:48;;;;;;;24.67;10.67;;;;;;;;;;5033075;28;20208;-86
2023/05/28 04:12:14;;;;;;;17.47;10.07;;;;;;;;;;5040938;28;20275;-86
2023/05/28 04:14:41;;;;;;;20.53;10.73;;;;;;;;;;5033815;28;20181;-85
2023/05/28 04:17:07;;;;;;;19.70;10.27;;;;;;;;;;5016726;28;20188;-85
2023/05/28 04:19:33;;;;;;;18.17;9.77;;;;;;;;;;5033115;28;20191;-85
2023/05/28 04:21:59;;;;;;;19.70;9.80;;;;;;;;;;5021964;28;20263;-82
2023/05/28 04:24:25;;;;;;;22.70;9.67;;;;;;;;;;5036527;28;20279;-82
2023/05/28 04:26:51;;;;;;;23.10;10.27;;;;;;;;;;5036207;28;20282;-82
2023/05/28 04:29:17;;;;;;;20.63;10.57;;;;;;;;;;5052941;28;20238;-82
2023/05/28 04:31:44;;;;;;;24.10;10.43;;;;;;;;;;5021395;28;20182;-82
2023/05/28 04:34:11;;;;;;;22.50;10.43;;;;;;;;;;5016408;28;20184;-82
2023/05/28 04:36:37;;;;;;;19.00;9.57;;;;;;;;;;5032659;28;20220;-82
2023/05/28 04:39:04;;;;;;;22.30;10.03;;;;;;;;;;5016590;28;20220;-82
2023/05/28 04:41:30;;;;;;;21.17;9.87;;;;;;;;;;5018352;28;20184;-82
2023/05/28 04:43:57;;;;;;;18.40;9.30;;;;;;;;;;5036804;28;20191;-82
2023/05/28 04:46:25;;;;;;;18.80;9.97;;;;;;;;;;5050066;28;20200;-82
2023/05/28 04:48:51;;;;;;;20.10;9.67;;;;;;;;;;5040079;28;20223;-82
2023/05/28 04:51:18;;;;;;;18.63;10.30;;;;;;;;;;5039938;28;20187;-82
2023/05/28 04:53:44;;;;;;;19.27;9.73;;;;;;;;;;5021409;28;20228;-82
2023/05/28 04:56:10;;;;;;;19.17;9.77;;;;;;;;;;5008803;28;20200;-82
2023/05/28 04:58:36;;;;;;;19.03;10.53;;;;;;;;;;5017563;28;20203;-82
2023/05/28 05:01:02;;;;;;;20.83;10.20;;;;;;;;;;5016760;28;20190;-82
2023/05/28 05:03:31;;;;;;;19.53;9.77;;;;;;;;;;5014120;28;20199;-82
2023/05/28 05:05:57;;;;;;;20.13;10.70;;;;;;;;;;5036049;28;20295;-82
2023/05/28 05:08:23;;;;;;;16.83;9.77;;;;;;;;;;5036814;28;20208;-82
2023/05/28 05:10:51;;;;;;;23.87;10.83;;;;;;;;;;5041577;28;20195;-82
2023/05/28 05:13:17;;;;;;;19.57;10.03;;;;;;;;;;5019005;28;20185;-82
2023/05/28 05:15:43;;;;;;;18.53;10.00;;;;;;;;;;5036045;28;20180;-82
2023/05/28 05:18:09;;;;;;;23.73;10.83;;;;;;;;;;5035649;28;20189;-86
2023/05/28 05:20:35;;;;;;;18.57;10.77;;;;;;;;;;5019582;28;20181;-86
2023/05/28 05:23:01;;;;;;;19.83;10.80;;;;;;;;;;5036015;28;20192;-86
2023/05/28 05:25:27;;;;;;;18.07;10.23;;;;;;;;;;5019482;28;20192;-86
2023/05/28 05:27:53;;;;;;;24.67;10.00;;;;;;;;;;5019117;28;20251;-86
2023/05/28 05:30:19;;;;;;;17.73;9.90;;;;;;;;;;5035516;28;20212;-85
2023/05/28 05:32:45;;;;;;;18.80;10.53;;;;;;;;;;5035894;28;20272;-85
2023/05/28 05:35:11;;;;;;;18.50;10.40;;;;;;;;;;5019278;28;20287;-85
2023/05/28 05:37:37;;;;;;;27.00;10.93;;;;;;;;;;5035771;28;20192;-85
2023/05/28 05:40:05;;;;;;;21.40;10.37;;;;;;;;;;5045065;22;20176;-84
2023/05/28 05:42:31;;;;;;;20.33;10.30;;;;;;;;;;5044555;28;20204;-82
2023/05/28 05:44:57;;;;;;;19.40;10.50;;;;;;;;;;5018760;28;20184;-86
2023/05/28 05:47:23;;;;;;;17.30;10.43;;;;;;;;;;5036140;28;20176;-86
2023/05/28 05:49:49;;;;;;;19.37;9.50;;;;;;;;;;5035067;28;20208;-87
2023/05/28 05:52:15;;;;;;;20.43;10.30;;;;;;;;;;5019337;28;20231;-86
2023/05/28 05:54:41;;;;;;;20.73;10.07;;;;;;;;;;5035101;28;20315;-87
2023/05/28 05:57:07;;;;;;;20.43;10.23;;;;;;;;;;5018466;28;20216;-86
2023/05/28 05:59:33;;;;;;;23.03;10.53;;;;;;;;;;5036403;28;20283;-86
2023/05/28 06:02:00;;;;;;;18.30;10.13;;;;;;;;;;5044129;28;20191;-82
2023/05/28 06:04:31;;;;;;;18.10;10.07;;;;;;;;;;5029162;28;20185;-83
2023/05/28 06:06:57;;;;;;;18.47;9.90;;;;;;;;;;5030190;28;20188;-83
2023/05/28 06:09:24;;;;;;;17.53;9.57;;;;;;;;;;5026942;28;20212;-83
2023/05/28 06:11:50;;;;;;;17.13;9.87;;;;;;;;;;5045018;28;20268;-82
2023/05/28 06:14:16;;;;;;;18.10;10.63;;;;;;;;;;5032608;28;20211;-82
2023/05/28 06:16:42;;;;;;;18.37;9.77;;;;;;;;;;5026166;28;20188;-82
2023/05/28 06:19:08;;;;;;;17.30;9.77;;;;;;;;;;5026867;28;20207;-87
2023/05/28 06:21:36;;;;;;;17.37;9.63;;;;;;;;;;5030845;28;20199;-86
2023/05/28 06:24:02;;;;;;;18.53;10.23;;;;;;;;;;5028524;28;20185;-87
2023/05/28 06:26:28;;;;;;;21.60;9.33;;;;;;;;;;5027425;28;20282;-86
2023/05/28 06:28:55;;;;;;;16.97;9.17;;;;;;;;;;5027553;28;20205;-86
2023/05/28 06:31:21;;;;;;;15.90;8.70;;;;;;;;;;5043629;28;20203;-87
2023/05/28 06:33:47;;;;;;;17.23;9.03;;;;;;;;;;5045324;28;20301;-87
2023/05/28 06:36:13;;;;;;;15.67;8.23;;;;;;;;;;5027307;28;20279;-82
2023/05/28 06:38:39;;;;;;;15.57;8.03;;;;;;;;;;5043528;28;20265;-83
2023/05/28 06:41:05;;;;;;;13.73;8.13;;;;;;;;;;5046332;28;20227;-82
2023/05/28 06:43:31;;;;;;;16.30;7.60;;;;;;;;;;5027602;28;20200;-82
2023/05/28 06:45:57;;;;;;;15.67;8.10;;;;;;;;;;5044805;28;20200;-82
2023/05/28 06:48:23;;;;;;;16.43;8.43;;;;;;;;;;5041775;28;20278;-82
2023/05/28 06:50:49;;;;;;;15.20;7.80;;;;;;;;;;5043848;28;20177;-86
2023/05/28 06:53:15;;;;;;;17.23;8.20;;;;;;;;;;5044825;28;20185;-87
2023/05/28 06:55:41;;;;;;;16.77;7.77;;;;;;;;;;5027971;28;20177;-86
2023/05/28 06:58:07;;;;;;;16.13;7.83;;;;;;;;;;5022857;28;20214;-86
2023/05/28 07:00:34;;;;;;;15.07;7.83;;;;;;;;;;5031891;28;20242;-86
2023/05/28 07:03:00;;;;;;;18.30;8.13;;;;;;;;;;5026802;28;20181;-86
2023/05/28 07:05:26;;;;;;;15.93;7.63;;;;;;;;;;5029831;28;20231;-86
2023/05/28 07:07:51;;;;;;;17.93;8.27;;;;;;;;;;5027725;28;20180;-86
2023/05/28 07:10:17;;;;;;;14.23;7.80;;;;;;;;;;5025325;28;20173;-82
2023/05/28 07:12:43;;;;;;;17.70;8.13;;;;;;;;;;5027880;28;20211;-82
2023/05/28 07:15:10;;;;;;;16.37;8.20;;;;;;;;;;5042638;28;20256;-82
2023/05/28 07:17:36;;;;;;;14.53;7.47;;;;;;;;;;5043109;28;20188;-82
2023/05/28 07:20:04;;;;;;;12.90;7.70;;;;;;;;;;5028620;28;20180;-82
2023/05/28 07:22:30;;;;;;;15.23;7.80;;;;;;;;;;5049017;28;20175;-82
2023/05/28 07:24:56;;;;;;;13.13;8.17;;;;;;;;;;5036875;28;20180;-86
2023/05/28 07:27:22;;;;;;;13.10;7.30;;;;;;;;;;5034207;28;20180;-86
2023/05/28 07:29:48;;;;;;;14.10;7.30;;;;;;;;;;5016665;28;20212;-86
2023/05/28 07:32:14;;;;;;;15.53;7.73;;;;;;;;;;5017598;28;20191;-87
2023/05/28 07:34:41;;;;;;;13.47;7.37;;;;;;;;;;5018777;28;20192;-87
2023/05/28 07:37:07;;;;;;;18.63;7.47;;;;;;;;;;5021856;28;20315;-87
2023/05/28 07:39:33;;;;;;;14.83;7.53;;;;;;;;;;5033233;28;20227;-87
2023/05/28 07:41:59;;;;;;;12.60;6.70;;;;;;;;;;5042454;28;20238;-87
2023/05/28 07:44:25;;;;;;;12.97;7.13;;;;;;;;;;5024845;28;20200;-87
2023/05/28 07:46:51;;;;;;;15.23;6.80;;;;;;;;;;5033415;28;20187;-87
2023/05/28 07:52:35;;;;;;;14.60;6.87;;;;;;;;;;5045007;28;20259;-87
2023/05/28 07:55:12;;;;;;;14.13;6.50;;;;;;;;;;5043462;28;20169;-87
2023/05/28 07:57:58;;;;;;;12.87;6.57;;;;;;;;;;5044792;28;20187;-87
2023/05/28 08:00:24;;;;;;;14.97;6.60;;;;;;;;;;5053135;28;20179;-83
2023/05/28 08:02:50;;;;;;;14.03;6.23;;;;;;;;;;5036824;28;20207;-83
2023/05/28 08:05:18;;;;;;;11.10;6.30;;;;;;;;;;5053282;28;20180;-83
2023/05/28 08:07:44;;;;;;;12.53;5.93;;;;;;;;;;5053178;28;20179;-83
2023/05/28 08:10:10;;;;;;;13.03;6.13;;;;;;;;;;5024605;28;20219;-83
2023/05/28 08:12:36;;;;;;;11.30;5.50;;;;;;;;;;5053026;28;20176;-83
2023/05/28 08:15:02;;;;;;;13.20;5.50;;;;;;;;;;5035363;28;20179;-87
2023/05/28 08:17:31;;;;;;;12.10;6.23;;;;;;;;;;5021390;28;20267;-87
2023/05/28 08:19:57;;;;;;;11.30;6.23;;;;;;;;;;5056993;28;20176;-87
2023/05/28 08:22:23;;;;;;;11.30;6.03;;;;;;;;;;5057468;28;20218;-87
2023/05/28 08:24:50;;;;;;;10.03;5.27;;;;;;;;;;5040472;28;20180;-87
2023/05/28 08:27:16;;;;;;;10.97;5.80;;;;;;;;;;5037594;28;20216;-87
2023/05/28 08:29:42;;;;;;;11.47;5.60;;;;;;;;;;5033383;28;20258;-88
2023/05/28 08:32:08;;;;;;;12.47;5.53;;;;;;;;;;5040428;28;20186;-87
2023/05/28 08:34:36;;;;;;;9.73;5.47;;;;;;;;;;5057842;28;20180;-87
2023/05/28 08:37:02;;;;;;;12.40;6.57;;;;;;;;;;5040409;28;20215;-87
2023/05/28 08:39:28;;;;;;;12.73;5.70;;;;;;;;;;5056864;28;20191;-87
2023/05/28 08:41:54;;;;;;;10.83;6.20;;;;;;;;;;5056540;28;20236;-87
2023/05/28 08:44:21;;;;;;;10.43;5.83;;;;;;;;;;5039382;28;20227;-88
2023/05/28 08:46:47;;;;;;;12.03;6.30;;;;;;;;;;5037541;28;20188;-88
2023/05/28 08:49:17;;;;;;;12.97;6.40;;;;;;;;;;5036929;28;20204;-89
2023/05/28 08:51:43;;;;;;;12.70;6.03;;;;;;;;;;5055734;28;20179;-89
2023/05/28 08:54:10;;;;;;;15.07;6.45;;;;;;;;;;5036740;28;20181;-88
2023/05/28 08:56:36;;;;;;;12.33;6.13;;;;;;;;;;5055537;28;20212;-88
2023/05/28 08:59:04;;;;;;;11.90;6.03;;;;;;;;;;5055806;28;20191;-88
2023/05/28 09:01:30;;;;;;;14.35;5.88;;;;;;;;;;5039456;28;20188;-88
2023/05/28 09:03:56;;;;;;;11.35;5.53;;;;;;;;;;5039300;28;20321;-87
2023/05/28 09:06:25;;;;;;;11.73;5.80;;;;;;;;;;5030295;23;20235;-87
2023/05/28 09:08:51;;;;;;;14.02;6.25;;;;;;;;;;5015148;28;20205;-83
2023/05/28 09:11:19;;;;;;;11.93;5.95;;;;;;;;;;5009531;28;20182;-83
2023/05/28 09:13:46;;;;;;;13.52;5.45;;;;;;;;;;5004967;28;20196;-83
2023/05/28 09:16:16;;;;;;;13.25;6.70;;;;;;;;;;4995221;28;20194;-82
2023/05/28 09:18:42;;;;;;;10.10;6.22;;;;;;;;;;5009196;28;20255;-82
2023/05/28 09:21:10;;;;;;;13.80;6.05;;;;;;;;;;5018430;28;20197;-85
2023/05/28 09:23:37;;;;;;;13.48;6.95;;;;;;;;;;5014485;28;20196;-82
2023/05/28 09:26:03;;;;;;;10.90;5.32;;;;;;;;;;5014278;28;20174;-82
2023/05/28 09:28:31;;;;;;;9.85;5.57;;;;;;;;;;5006821;28;20212;-82
2023/05/28 09:31:04;;;;;;;11.35;6.05;;;;;;;;;;5035921;28;20227;-82
2023/05/28 09:33:30;;;;;;;11.20;5.13;;;;;;;;;;5035702;28;20180;-82
2023/05/28 09:36:03;;;;;;;9.05;5.18;;;;;;;;;;5035797;28;20177;-82
2023/05/28 09:38:39;;;;;;;12.45;5.68;;;;;;;;;;5035315;28;20255;-82
2023/05/28 09:41:06;;;;;;;11.88;6.00;;;;;;;;;;5035652;28;20196;-82
2023/05/28 09:43:32;;;;;;;15.38;6.32;;;;;;;;;;5035496;28;20179;-82
2023/05/28 09:46:07;;;;;;;11.13;5.10;;;;;;;;;;5015444;28;20197;-82
2023/05/28 09:48:33;;;;;;;12.35;5.57;;;;;;;;;;5032318;28;20204;-82
2023/05/28 09:51:03;;;;;;;11.90;5.43;;;;;;;;;;5032487;28;20220;-82
2023/05/28 09:53:33;;;;;;;10.35;5.60;;;;;;;;;;5031826;28;20177;-83
2023/05/28 09:56:03;;;;;;;16.92;6.15;;;;;;;;;;5031396;28;20208;-82
2023/05/28 09:58:34;;;;;;;12.50;5.95;;;;;;;;;;5031492;28;20177;-82
2023/05/28 10:01:01;;;;;;;9.68;5.53;;;;;;;;;;5031544;28;20235;-82
2023/05/28 10:03:42;;;;;;;13.13;6.57;;;;;;;;;;5031933;28;20177;-83
2023/05/28 10:06:14;;;;;;;11.80;5.75;;;;;;;;;;5017132;28;20225;-83
2023/05/28 10:08:41;;;;;;;15.73;6.35;;;;;;;;;;5023208;28;20212;-82
2023/05/28 10:11:10;;;;;;;12.32;7.43;;;;;;;;;;4963195;28;20325;-81
2023/05/28 10:13:36;;;;;;;11.73;7.10;;;;;;;;;;4989706;28;20190;-82
2023/05/28 10:16:02;;;;;;;12.82;7.15;;;;;;;;;;4994361;28;20186;-83
2023/05/28 10:18:32;;;;;;;11.48;6.50;;;;;;;;;;4992018;28;20194;-81
2023/05/28 10:20:58;;;;;;;15.27;7.38;;;;;;;;;;4985905;28;20252;-82
2023/05/28 10:23:24;;;;;;;13.82;6.85;;;;;;;;;;4995622;28;20269;-82
2023/05/28 10:25:53;;;;;;;14.32;7.20;;;;;;;;;;4995167;28;20190;-82
2023/05/28 10:28:20;;;;;;;13.15;7.05;;;;;;;;;;4995026;28;20214;-83
2023/05/28 10:30:46;;;;;;;11.57;6.80;;;;;;;;;;4995031;28;20209;-83
2023/05/28 10:33:15;;;;;;;13.80;6.85;;;;;;;;;;4994922;28;20189;-83
2023/05/28 10:35:55;;;;;;;13.65;7.30;;;;;;;;;;4994732;28;20178;-83
2023/05/28 10:38:22;;;;;;;13.15;6.60;;;;;;;;;;4993664;28;20265;-83
2023/05/28 10:40:51;;;;;;;12.75;6.05;;;;;;;;;;4994455;28;20174;-83
2023/05/28 10:43:38;;;;;;;13.65;6.30;;;;;;;;;;4994641;28;20201;-82
2023/05/28 10:46:15;;;;;;;10.25;5.00;;;;;;;;;;4994331;28;20248;-83
2023/05/28 10:48:41;;;;;;;12.55;5.97;;;;;;;;;;4994358;28;20205;-83
2023/05/28 10:51:07;;;;;;;10.73;5.43;;;;;;;;;;4993098;28;20186;-83
2023/05/28 10:53:37;;;;;;;10.02;4.60;;;;;;;;;;4994775;28;20178;-83
2023/05/28 10:56:03;;;;;;;11.35;5.85;;;;;;;;;;4994977;28;20178;-83
2023/05/28 10:58:29;;;;;;;11.93;5.90;;;;;;;;;;4994460;28;20186;-82
2023/05/28 11:01:02;;;;;;;11.60;6.18;;;;;;;;;;4994307;28;20228;-82
2023/05/28 11:03:54;;;;;;;10.57;5.20;;;;;;;;;;4994199;28;20185;-82
2023/05/28 11:06:21;;;;;;;13.75;5.63;;;;;;;;;;4992479;28;20221;-83
2023/05/28 11:08:48;;;;;;;13.55;6.25;;;;;;;;;;4993733;28;20241;-82
2023/05/28 11:11:17;;;;;;;10.93;6.13;;;;;;;;;;4994339;28;20217;-82
2023/05/28 11:13:47;;;;;;;11.65;5.75;;;;;;;;;;4994245;28;20171;-82
2023/05/28 11:16:15;;;;;;;12.13;6.53;;;;;;;;;;4994082;28;20178;-82
2023/05/28 11:19:01;;;;;;;13.68;5.75;;;;;;;;;;4993855;28;20177;-82
2023/05/28 11:21:32;;;;;;;11.40;5.55;;;;;;;;;;4994223;28;20268;-82
2023/05/28 11:24:05;;;;;;;11.25;5.13;;;;;;;;;;4993499;28;20186;-82
2023/05/28 11:26:32;;;;;;;11.57;5.55;;;;;;;;;;4994317;28;20193;-83
2023/05/28 11:28:58;;;;;;;11.90;4.97;;;;;;;;;;4994134;28;20289;-82
2023/05/28 11:31:25;;;;;;;7.38;4.70;;;;;;;;;;4993817;28;20317;-82
2023/05/28 11:33:51;;;;;;;10.27;4.75;;;;;;;;;;4994013;28;20178;-82
2023/05/28 11:36:18;;;;;;;7.60;4.32;;;;;;;;;;4993705;28;20178;-82
2023/05/28 11:38:47;;;;;;;8.30;4.05;;;;;;;;;;4993636;28;20208;-82
2023/05/28 11:41:13;;;;;;;8.85;4.32;;;;;;;;;;4994309;28;20178;-83
2023/05/28 11:43:39;;;;;;;9.68;4.85;;;;;;;;;;4993153;28;20189;-83
2023/05/28 11:46:05;;;;;;;10.07;4.50;;;;;;;;;;4977113;28;20229;-83
2023/05/28 11:48:37;;;;;;;7.88;4.22;;;;;;;;;;4977514;28;20252;-83
2023/05/28 11:51:03;;;;;;;8.48;4.28;;;;;;;;;;4992918;28;20174;-83
2023/05/28 11:53:49;;;;;;;7.90;4.45;;;;;;;;;;4992782;28;20203;-83
2023/05/28 11:56:15;;;;;;;8.52;4.55;;;;;;;;;;4993685;28;20193;-83
2023/05/28 11:58:45;;;;;;;10.20;4.55;;;;;;;;;;4992742;28;20182;-83
2023/05/28 12:01:18;;;;;;;11.30;4.57;;;;;;;;;;4993336;28;20182;-83
2023/05/28 12:03:44;;;;;;;9.02;4.80;;;;;;;;;;4993391;28;20272;-83
2023/05/28 12:06:11;;;;;;;9.20;4.93;;;;;;;;;;4993199;28;20349;-83
2023/05/28 12:08:40;;;;;;;10.35;4.78;;;;;;;;;;4993408;28;20206;-83
2023/05/28 12:11:08;;;;;;;10.07;4.68;;;;;;;;;;4993394;28;20235;-83
2023/05/28 12:13:34;;;;;;;9.57;4.85;;;;;;;;;;4993349;28;20204;-83
2023/05/28 12:16:10;;;;;;;9.88;5.18;;;;;;;;;;4992719;28;20174;-83
2023/05/28 12:18:45;;;;;;;10.60;5.07;;;;;;;;;;4991443;28;20186;-82
2023/05/28 12:21:18;;;;;;;10.93;5.22;;;;;;;;;;4993460;28;20208;-82
2023/05/28 12:23:45;;;;;;;8.10;4.80;;;;;;;;;;4993675;28;20190;-82
2023/05/28 12:26:14;;;;;;;9.27;4.90;;;;;;;;;;4993107;28;20182;-82
2023/05/28 12:28:41;;;;;;;9.48;5.00;;;;;;;;;;4993016;28;20231;-83
2023/05/28 12:31:10;;;;;;;11.25;5.47;;;;;;;;;;4993057;28;20182;-82
2023/05/28 12:33:36;;;;;;;8.88;4.60;;;;;;;;;;4993253;28;20255;-83
2023/05/28 12:36:02;;;;;;;9.80;5.40;;;;;;;;;;4993478;28;20222;-83
2023/05/28 12:38:28;;;;;;;10.73;5.20;;;;;;;;;;4993351;28;20229;-83
2023/05/28 12:40:55;;;;;;;12.10;5.70;;;;;;;;;;4992528;28;20194;-83
2023/05/28 12:43:21;;;;;;;11.13;5.60;;;;;;;;;;4991733;28;20178;-83
2023/05/28 12:45:47;;;;;;;12.75;5.53;;;;;;;;;;4992883;28;20293;-82
2023/05/28 12:48:13;;;;;;;8.52;4.97;;;;;;;;;;4993149;28;20222;-82
2023/05/28 12:50:41;;;;;;;9.88;5.30;;;;;;;;;;4993097;28;20196;-83
2023/05/28 12:53:07;;;;;;;9.50;5.10;;;;;;;;;;4993011;28;20265;-83
2023/05/28 12:55:34;;;;;;;10.38;5.15;;;;;;;;;;4989722;28;20205;-83
2023/05/28 12:58:00;;;;;;;10.85;4.97;;;;;;;;;;4992516;28;20170;-82
2023/05/28 13:00:26;;;;;;;10.70;5.05;;;;;;;;;;4992677;28;20178;-82
2023/05/28 13:02:52;;;;;;;11.52;5.38;;;;;;;;;;4995387;28;20178;-82
2023/05/28 13:05:18;;;;;;;11.07;5.07;;;;;;;;;;4979720;28;20178;-82
2023/05/28 13:07:44;;;;;;;8.52;4.80;;;;;;;;;;4995302;28;20178;-83
2023/05/28 13:10:13;;;;;;;10.52;5.00;;;;;;;;;;4996381;28;20213;-83
2023/05/28 13:12:39;;;;;;;9.73;5.18;;;;;;;;;;4995734;28;20178;-82
2023/05/28 13:15:06;;;;;;;8.85;4.97;;;;;;;;;;4996003;28;20190;-83
2023/05/28 13:17:35;;;;;;;12.23;4.95;;;;;;;;;;4995943;28;20181;-83
2023/05/28 13:20:05;;;;;;;13.50;6.22;;;;;;;;;;4996774;28;20209;-82
2023/05/28 13:22:35;;;;;;;11.43;5.78;;;;;;;;;;4996797;28;20217;-83
2023/05/28 13:25:02;;;;;;;10.80;5.10;;;;;;;;;;4996911;28;20181;-83
2023/05/28 13:27:28;;;;;;;8.77;4.97;;;;;;;;;;4996170;28;20201;-83
2023/05/28 13:29:54;;;;;;;11.48;5.07;;;;;;;;;;4996594;28;20252;-83
2023/05/28 13:32:20;;;;;;;8.93;5.13;;;;;;;;;;4995989;28;20205;-83
2023/05/28 13:34:46;;;;;;;11.82;4.97;;;;;;;;;;4995417;28;20178;-83
2023/05/28 13:37:12;;;;;;;10.38;5.10;;;;;;;;;;4994112;28;20170;-83
2023/05/28 13:39:41;;;;;;;12.80;5.70;;;;;;;;;;4992562;28;20178;-83
2023/05/28 13:42:08;;;;;;;10.63;5.60;;;;;;;;;;4994172;28;20178;-83
2023/05/28 13:44:34;;;;;;;11.63;5.97;;;;;;;;;;4995408;28;20189;-83
2023/05/28 13:47:03;;;;;;;14.30;6.03;;;;;;;;;;4995140;28;20225;-83
2023/05/28 13:49:29;;;;;;;11.40;5.50;;;;;;;;;;4978189;28;20209;-83
2023/05/28 13:51:56;;;;;;;10.88;5.38;;;;;;;;;;4994997;28;20242;-83
2023/05/28 13:54:22;;;;;;;10.23;5.18;;;;;;;;;;4995213;28;20171;-83
2023/05/28 13:56:50;;;;;;;11.35;6.00;;;;;;;;;;4995105;28;20178;-83
2023/05/28 13:59:16;;;;;;;12.00;5.97;;;;;;;;;;4994307;28;20177;-83
2023/05/28 14:01:42;;;;;;;11.93;5.50;;;;;;;;;;4994992;28;20200;-83
2023/05/28 14:04:11;;;;;;;9.43;5.70;;;;;;;;;;4995082;28;20261;-83
2023/05/28 14:06:37;;;;;;;12.05;5.38;;;;;;;;;;4994853;28;20368;-83
2023/05/28 14:09:05;;;;;;;8.75;5.57;;;;;;;;;;4994891;28;20202;-83
2023/05/28 14:11:33;;;;;;;11.82;5.53;;;;;;;;;;4995447;28;20216;-83
2023/05/28 14:13:59;;;;;;;9.75;5.70;;;;;;;;;;4992267;28;20166;-83
2023/05/28 14:16:25;;;;;;;9.60;5.35;;;;;;;;;;4994603;28;20170;-83
2023/05/28 14:18:51;;;;;;;9.70;5.40;;;;;;;;;;4994953;28;20189;-83
2023/05/28 14:21:20;;;;;;;10.30;5.55;;;;;;;;;;4992321;28;20190;-85
2023/05/28 14:23:46;;;;;;;9.38;5.82;;;;;;;;;;4975812;28;20183;-84
2023/05/28 14:26:12;;;;;;;9.63;5.47;;;;;;;;;;4976356;28;20269;-84
2023/05/28 14:28:41;;;;;;;9.23;5.38;;;;;;;;;;4975486;28;20210;-84
2023/05/28 14:31:07;;;;;;;11.30;5.55;;;;;;;;;;4975318;28;20182;-84
2023/05/28 14:33:33;;;;;;;11.07;5.80;;;;;;;;;;4975261;28;20174;-84